sensor_id;sensor_type;location;lat;lon;timestamp;P1;durP1;ratioP1;P2;durP2;ratioP2
80146;SDS011;69472;55.812;37.638;2023-04-24T00:03:56;16.05;;;7.20;;
80146;SDS011;69472;55.812;37.638;2023-04-24T00:14:00;11.75;;;6.75;;
80146;SDS011;69472;55.812;37.638;2023-04-24T00:19:01;12.65;;;6.63;;
80146;SDS011;69472;55.812;37.638;2023-04-24T00:24:02;13.80;;;6.93;;
80146;SDS011;69472;55.812;37.638;2023-04-24T00:29:03;12.32;;;6.95;;
80146;SDS011;69472;55.812;37.638;2023-04-24T00:34:03;16.90;;;7.93;;
80146;SDS011;69472;55.812;37.638;2023-04-24T00:39:04;14.63;;;7.53;;
80146;SDS011;69472;55.812;37.638;2023-04-24T00:44:05;13.85;;;8.35;;
80146;SDS011;69472;55.812;37.638;2023-04-24T00:49:06;15.80;;;7.72;;
80146;SDS011;69472;55.812;37.638;2023-04-24T00:54:06;19.38;;;8.90;;
80146;SDS011;69472;55.812;37.638;2023-04-24T00:59:08;16.83;;;8.15;;
80146;SDS011;69472;55.812;37.638;2023-04-24T01:04:09;17.58;;;7.88;;
80146;SDS011;69472;55.812;37.638;2023-04-24T01:09:11;19.55;;;8.07;;
80146;SDS011;69472;55.812;37.638;2023-04-24T01:14:13;19.38;;;8.57;;
80146;SDS011;69472;55.812;37.638;2023-04-24T01:19:14;13.60;;;8.73;;
80146;SDS011;69472;55.812;37.638;2023-04-24T01:24:16;17.67;;;8.85;;
80146;SDS011;69472;55.812;37.638;2023-04-24T01:29:19;19.55;;;9.93;;
80146;SDS011;69472;55.812;37.638;2023-04-24T01:34:20;13.68;;;9.63;;
80146;SDS011;69472;55.812;37.638;2023-04-24T01:39:21;19.77;;;9.30;;
80146;SDS011;69472;55.812;37.638;2023-04-24T01:44:23;17.45;;;10.20;;
80146;SDS011;69472;55.812;37.638;2023-04-24T01:49:24;17.05;;;9.40;;
80146;SDS011;69472;55.812;37.638;2023-04-24T01:54:24;15.65;;;10.88;;
80146;SDS011;69472;55.812;37.638;2023-04-24T01:59:25;15.90;;;10.80;;
80146;SDS011;69472;55.812;37.638;2023-04-24T02:04:28;16.10;;;9.77;;
80146;SDS011;69472;55.812;37.638;2023-04-24T02:09:29;17.13;;;10.15;;
80146;SDS011;69472;55.812;37.638;2023-04-24T02:14:29;18.75;;;9.57;;
80146;SDS011;69472;55.812;37.638;2023-04-24T02:19:30;15.43;;;10.25;;
80146;SDS011;69472;55.812;37.638;2023-04-24T02:24:31;19.58;;;9.80;;
80146;SDS011;69472;55.812;37.638;2023-04-24T02:29:32;19.23;;;10.80;;
80146;SDS011;69472;55.812;37.638;2023-04-24T02:34:33;19.38;;;10.45;;
80146;SDS011;69472;55.812;37.638;2023-04-24T02:39:33;16.23;;;10.40;;
80146;SDS011;69472;55.812;37.638;2023-04-24T02:44:34;19.45;;;11.27;;
80146;SDS011;69472;55.812;37.638;2023-04-24T02:49:35;20.05;;;12.15;;
80146;SDS011;69472;55.812;37.638;2023-04-24T02:54:36;22.80;;;12.02;;
80146;SDS011;69472;55.812;37.638;2023-04-24T02:59:36;23.00;;;11.88;;
80146;SDS011;69472;55.812;37.638;2023-04-24T03:04:37;22.85;;;12.48;;
80146;SDS011;69472;55.812;37.638;2023-04-24T03:09:40;23.55;;;12.55;;
80146;SDS011;69472;55.812;37.638;2023-04-24T03:14:41;24.35;;;13.70;;
80146;SDS011;69472;55.812;37.638;2023-04-24T03:19:41;31.48;;;15.13;;
80146;SDS011;69472;55.812;37.638;2023-04-24T03:24:42;24.27;;;13.90;;
80146;SDS011;69472;55.812;37.638;2023-04-24T03:29:43;27.02;;;14.65;;
80146;SDS011;69472;55.812;37.638;2023-04-24T03:34:43;30.58;;;15.18;;
80146;SDS011;69472;55.812;37.638;2023-04-24T03:39:44;29.88;;;15.23;;
80146;SDS011;69472;55.812;37.638;2023-04-24T03:44:45;28.60;;;15.15;;
80146;SDS011;69472;55.812;37.638;2023-04-24T03:49:46;23.83;;;15.38;;
80146;SDS011;69472;55.812;37.638;2023-04-24T03:54:47;33.08;;;20.10;;
80146;SDS011;69472;55.812;37.638;2023-04-24T03:59:47;30.27;;;14.50;;
80146;SDS011;69472;55.812;37.638;2023-04-24T04:04:48;35.63;;;17.23;;
80146;SDS011;69472;55.812;37.638;2023-04-24T04:09:49;30.38;;;16.17;;
80146;SDS011;69472;55.812;37.638;2023-04-24T04:14:50;38.42;;;16.98;;
80146;SDS011;69472;55.812;37.638;2023-04-24T04:19:51;35.35;;;16.42;;
80146;SDS011;69472;55.812;37.638;2023-04-24T04:24:52;47.20;;;19.50;;
80146;SDS011;69472;55.812;37.638;2023-04-24T04:29:53;33.38;;;16.42;;
80146;SDS011;69472;55.812;37.638;2023-04-24T04:34:53;28.88;;;17.60;;
80146;SDS011;69472;55.812;37.638;2023-04-24T04:39:54;27.83;;;17.20;;
80146;SDS011;69472;55.812;37.638;2023-04-24T04:44:55;32.47;;;17.33;;
80146;SDS011;69472;55.812;37.638;2023-04-24T04:49:57;29.85;;;18.02;;
80146;SDS011;69472;55.812;37.638;2023-04-24T04:54:58;23.00;;;13.77;;
80146;SDS011;69472;55.812;37.638;2023-04-24T04:59:58;19.63;;;12.73;;
80146;SDS011;69472;55.812;37.638;2023-04-24T05:05:00;17.17;;;12.55;;
80146;SDS011;69472;55.812;37.638;2023-04-24T05:10:01;15.10;;;12.27;;
80146;SDS011;69472;55.812;37.638;2023-04-24T05:15:02;21.48;;;13.95;;
80146;SDS011;69472;55.812;37.638;2023-04-24T05:25:08;17.67;;;10.98;;
80146;SDS011;69472;55.812;37.638;2023-04-24T05:30:09;17.30;;;9.95;;
80146;SDS011;69472;55.812;37.638;2023-04-24T05:35:10;20.63;;;9.63;;
80146;SDS011;69472;55.812;37.638;2023-04-24T05:40:11;20.10;;;9.93;;
80146;SDS011;69472;55.812;37.638;2023-04-24T05:45:12;16.10;;;8.75;;
80146;SDS011;69472;55.812;37.638;2023-04-24T05:50:16;20.90;;;11.02;;
80146;SDS011;69472;55.812;37.638;2023-04-24T05:55:17;16.45;;;8.52;;
80146;SDS011;69472;55.812;37.638;2023-04-24T06:05:20;17.60;;;10.38;;
80146;SDS011;69472;55.812;37.638;2023-04-24T06:10:20;14.13;;;8.23;;
80146;SDS011;69472;55.812;37.638;2023-04-24T06:20:22;13.38;;;6.90;;
80146;SDS011;69472;55.812;37.638;2023-04-24T06:25:25;10.35;;;8.45;;
80146;SDS011;69472;55.812;37.638;2023-04-24T06:30:26;11.98;;;7.95;;
80146;SDS011;69472;55.812;37.638;2023-04-24T06:35:28;9.88;;;7.43;;
80146;SDS011;69472;55.812;37.638;2023-04-24T06:40:29;14.27;;;8.98;;
80146;SDS011;69472;55.812;37.638;2023-04-24T06:45:30;12.10;;;8.20;;
80146;SDS011;69472;55.812;37.638;2023-04-24T06:50:30;10.40;;;7.93;;
80146;SDS011;69472;55.812;37.638;2023-04-24T06:55:31;13.93;;;8.40;;
80146;SDS011;69472;55.812;37.638;2023-04-24T07:00:33;13.85;;;7.50;;
80146;SDS011;69472;55.812;37.638;2023-04-24T07:05:33;15.85;;;8.35;;
80146;SDS011;69472;55.812;37.638;2023-04-24T07:10:35;10.27;;;7.10;;
80146;SDS011;69472;55.812;37.638;2023-04-24T07:15:36;10.50;;;6.93;;
80146;SDS011;69472;55.812;37.638;2023-04-24T07:20:36;12.30;;;7.28;;
80146;SDS011;69472;55.812;37.638;2023-04-24T07:25:37;9.48;;;6.70;;
80146;SDS011;69472;55.812;37.638;2023-04-24T07:30:39;10.15;;;7.50;;
80146;SDS011;69472;55.812;37.638;2023-04-24T07:35:40;11.48;;;6.53;;
80146;SDS011;69472;55.812;37.638;2023-04-24T07:40:41;9.15;;;6.40;;
80146;SDS011;69472;55.812;37.638;2023-04-24T07:45:41;9.63;;;6.85;;
80146;SDS011;69472;55.812;37.638;2023-04-24T07:50:42;9.35;;;6.90;;
80146;SDS011;69472;55.812;37.638;2023-04-24T07:55:43;8.68;;;6.57;;
80146;SDS011;69472;55.812;37.638;2023-04-24T08:00:43;7.57;;;6.68;;
80146;SDS011;69472;55.812;37.638;2023-04-24T08:05:44;11.30;;;6.70;;
80146;SDS011;69472;55.812;37.638;2023-04-24T08:10:45;10.75;;;7.07;;
80146;SDS011;69472;55.812;37.638;2023-04-24T08:15:45;8.43;;;7.57;;
80146;SDS011;69472;55.812;37.638;2023-04-24T08:20:46;10.10;;;7.32;;
80146;SDS011;69472;55.812;37.638;2023-04-24T08:25:48;7.50;;;6.82;;
80146;SDS011;69472;55.812;37.638;2023-04-24T08:30:49;8.05;;;6.45;;
80146;SDS011;69472;55.812;37.638;2023-04-24T08:35:54;7.18;;;6.47;;
80146;SDS011;69472;55.812;37.638;2023-04-24T08:40:56;9.25;;;6.40;;
80146;SDS011;69472;55.812;37.638;2023-04-24T08:45:58;6.82;;;6.20;;
80146;SDS011;69472;55.812;37.638;2023-04-24T08:51:00;8.45;;;5.78;;
80146;SDS011;69472;55.812;37.638;2023-04-24T08:56:02;14.10;;;6.03;;
80146;SDS011;69472;55.812;37.638;2023-04-24T09:01:03;7.88;;;6.13;;
80146;SDS011;69472;55.812;37.638;2023-04-24T09:06:05;9.18;;;6.60;;
80146;SDS011;69472;55.812;37.638;2023-04-24T09:11:07;11.00;;;5.97;;
80146;SDS011;69472;55.812;37.638;2023-04-24T09:16:08;8.13;;;6.38;;
80146;SDS011;69472;55.812;37.638;2023-04-24T09:21:09;8.75;;;6.07;;
80146;SDS011;69472;55.812;37.638;2023-04-24T09:26:10;8.48;;;6.03;;
80146;SDS011;69472;55.812;37.638;2023-04-24T09:31:15;6.93;;;5.32;;
80146;SDS011;69472;55.812;37.638;2023-04-24T09:36:18;7.82;;;5.88;;
80146;SDS011;69472;55.812;37.638;2023-04-24T09:41:19;6.68;;;6.05;;
80146;SDS011;69472;55.812;37.638;2023-04-24T09:46:20;7.65;;;5.63;;
80146;SDS011;69472;55.812;37.638;2023-04-24T09:51:35;9.23;;;5.78;;
80146;SDS011;69472;55.812;37.638;2023-04-24T09:56:37;7.75;;;5.47;;
80146;SDS011;69472;55.812;37.638;2023-04-24T10:01:43;7.22;;;5.18;;
80146;SDS011;69472;55.812;37.638;2023-04-24T10:06:45;6.97;;;5.30;;
80146;SDS011;69472;55.812;37.638;2023-04-24T10:11:49;9.27;;;6.30;;
80146;SDS011;69472;55.812;37.638;2023-04-24T10:16:53;9.27;;;5.88;;
80146;SDS011;69472;55.812;37.638;2023-04-24T10:21:55;10.13;;;5.65;;
80146;SDS011;69472;55.812;37.638;2023-04-24T10:26:57;8.35;;;5.40;;
80146;SDS011;69472;55.812;37.638;2023-04-24T10:31:58;8.13;;;5.20;;
80146;SDS011;69472;55.812;37.638;2023-04-24T10:36:59;9.77;;;6.50;;
80146;SDS011;69472;55.812;37.638;2023-04-24T10:42:00;7.32;;;6.07;;
80146;SDS011;69472;55.812;37.638;2023-04-24T10:47:01;7.82;;;6.03;;
80146;SDS011;69472;55.812;37.638;2023-04-24T10:52:02;8.88;;;5.78;;
80146;SDS011;69472;55.812;37.638;2023-04-24T11:02:35;9.15;;;5.47;;
80146;SDS011;69472;55.812;37.638;2023-04-24T11:19:00;11.25;;;5.43;;
80146;SDS011;69472;55.812;37.638;2023-04-24T11:29:51;8.68;;;5.13;;
80146;SDS011;69472;55.812;37.638;2023-04-24T11:35:01;11.63;;;6.55;;
80146;SDS011;69472;55.812;37.638;2023-04-24T11:40:08;12.98;;;5.50;;
80146;SDS011;69472;55.812;37.638;2023-04-24T11:45:11;13.25;;;6.68;;
80146;SDS011;69472;55.812;37.638;2023-04-24T11:50:21;9.30;;;5.68;;
80146;SDS011;69472;55.812;37.638;2023-04-24T12:00:28;7.22;;;5.20;;
80146;SDS011;69472;55.812;37.638;2023-04-24T12:05:31;5.93;;;4.32;;
80146;SDS011;69472;55.812;37.638;2023-04-24T12:10:33;7.63;;;5.50;;
80146;SDS011;69472;55.812;37.638;2023-04-24T12:15:35;7.95;;;4.95;;
80146;SDS011;69472;55.812;37.638;2023-04-24T12:20:35;6.75;;;5.05;;
80146;SDS011;69472;55.812;37.638;2023-04-24T12:25:38;8.23;;;4.80;;
80146;SDS011;69472;55.812;37.638;2023-04-24T12:30:44;9.23;;;4.90;;
80146;SDS011;69472;55.812;37.638;2023-04-24T12:35:51;7.05;;;4.95;;
80146;SDS011;69472;55.812;37.638;2023-04-24T12:41:30;10.15;;;7.15;;
80146;SDS011;69472;55.812;37.638;2023-04-24T12:46:22;13.18;;;4.32;;
80146;SDS011;69472;55.812;37.638;2023-04-24T12:51:23;8.93;;;4.55;;
80146;SDS011;69472;55.812;37.638;2023-04-24T12:56:24;8.82;;;6.00;;
80146;SDS011;69472;55.812;37.638;2023-04-24T13:01:25;7.35;;;5.45;;
80146;SDS011;69472;55.812;37.638;2023-04-24T13:06:27;7.80;;;4.72;;
80146;SDS011;69472;55.812;37.638;2023-04-24T13:11:27;9.35;;;5.85;;
80146;SDS011;69472;55.812;37.638;2023-04-24T13:16:28;8.10;;;5.38;;
80146;SDS011;69472;55.812;37.638;2023-04-24T13:21:29;9.43;;;4.82;;
80146;SDS011;69472;55.812;37.638;2023-04-24T13:26:30;9.10;;;4.88;;
80146;SDS011;69472;55.812;37.638;2023-04-24T13:31:31;4.97;;;3.92;;
80146;SDS011;69472;55.812;37.638;2023-04-24T13:36:32;8.75;;;4.82;;
80146;SDS011;69472;55.812;37.638;2023-04-24T13:41:33;6.40;;;4.32;;
80146;SDS011;69472;55.812;37.638;2023-04-24T13:46:34;8.43;;;4.20;;
80146;SDS011;69472;55.812;37.638;2023-04-24T13:51:35;5.75;;;4.68;;
80146;SDS011;69472;55.812;37.638;2023-04-24T13:56:35;7.15;;;4.47;;
80146;SDS011;69472;55.812;37.638;2023-04-24T14:01:36;8.68;;;5.57;;
80146;SDS011;69472;55.812;37.638;2023-04-24T14:06:37;6.65;;;5.05;;
80146;SDS011;69472;55.812;37.638;2023-04-24T14:11:38;9.40;;;6.82;;
80146;SDS011;69472;55.812;37.638;2023-04-24T14:16:39;7.07;;;5.75;;
80146;SDS011;69472;55.812;37.638;2023-04-24T14:21:40;8.80;;;5.68;;
80146;SDS011;69472;55.812;37.638;2023-04-24T14:26:41;10.90;;;4.22;;
80146;SDS011;69472;55.812;37.638;2023-04-24T14:31:42;8.80;;;5.35;;
80146;SDS011;69472;55.812;37.638;2023-04-24T14:36:43;8.38;;;5.22;;
80146;SDS011;69472;55.812;37.638;2023-04-24T14:41:44;12.35;;;6.32;;
80146;SDS011;69472;55.812;37.638;2023-04-24T14:46:44;7.95;;;4.38;;
80146;SDS011;69472;55.812;37.638;2023-04-24T14:51:45;9.75;;;5.47;;
80146;SDS011;69472;55.812;37.638;2023-04-24T14:56:46;7.75;;;5.60;;
80146;SDS011;69472;55.812;37.638;2023-04-24T15:01:47;11.73;;;4.32;;
80146;SDS011;69472;55.812;37.638;2023-04-24T15:06:47;9.02;;;4.30;;
80146;SDS011;69472;55.812;37.638;2023-04-24T15:11:49;11.45;;;4.20;;
80146;SDS011;69472;55.812;37.638;2023-04-24T15:16:51;11.18;;;4.53;;
80146;SDS011;69472;55.812;37.638;2023-04-24T15:21:51;9.80;;;4.38;;
80146;SDS011;69472;55.812;37.638;2023-04-24T15:26:53;10.32;;;4.85;;
80146;SDS011;69472;55.812;37.638;2023-04-24T15:31:53;5.53;;;4.57;;
80146;SDS011;69472;55.812;37.638;2023-04-24T15:36:54;8.65;;;4.22;;
80146;SDS011;69472;55.812;37.638;2023-04-24T15:41:55;7.72;;;4.20;;
80146;SDS011;69472;55.812;37.638;2023-04-24T15:46:56;8.32;;;4.35;;
80146;SDS011;69472;55.812;37.638;2023-04-24T15:52:01;10.40;;;4.60;;
80146;SDS011;69472;55.812;37.638;2023-04-24T15:57:02;7.68;;;5.20;;
80146;SDS011;69472;55.812;37.638;2023-04-24T16:02:03;6.53;;;4.00;;
80146;SDS011;69472;55.812;37.638;2023-04-24T16:07:04;7.55;;;3.70;;
80146;SDS011;69472;55.812;37.638;2023-04-24T16:12:05;23.70;;;4.65;;
80146;SDS011;69472;55.812;37.638;2023-04-24T16:17:05;10.90;;;4.60;;
80146;SDS011;69472;55.812;37.638;2023-04-24T16:22:06;8.75;;;4.55;;
80146;SDS011;69472;55.812;37.638;2023-04-24T16:27:07;9.15;;;5.03;;
80146;SDS011;69472;55.812;37.638;2023-04-24T16:32:08;13.43;;;6.60;;
80146;SDS011;69472;55.812;37.638;2023-04-24T16:37:10;14.20;;;4.57;;
80146;SDS011;69472;55.812;37.638;2023-04-24T16:42:11;11.32;;;5.88;;
80146;SDS011;69472;55.812;37.638;2023-04-24T16:47:13;7.20;;;4.55;;
80146;SDS011;69472;55.812;37.638;2023-04-24T16:52:14;9.85;;;4.50;;
80146;SDS011;69472;55.812;37.638;2023-04-24T16:57:15;15.93;;;5.50;;
80146;SDS011;69472;55.812;37.638;2023-04-24T17:02:16;8.77;;;4.95;;
80146;SDS011;69472;55.812;37.638;2023-04-24T17:07:16;12.55;;;4.72;;
80146;SDS011;69472;55.812;37.638;2023-04-24T17:12:18;15.18;;;6.28;;
80146;SDS011;69472;55.812;37.638;2023-04-24T17:17:18;12.73;;;5.82;;
80146;SDS011;69472;55.812;37.638;2023-04-24T17:22:22;14.38;;;6.38;;
80146;SDS011;69472;55.812;37.638;2023-04-24T17:27:23;14.00;;;6.20;;
80146;SDS011;69472;55.812;37.638;2023-04-24T17:32:24;15.98;;;6.05;;
80146;SDS011;69472;55.812;37.638;2023-04-24T17:37:25;13.18;;;6.32;;
80146;SDS011;69472;55.812;37.638;2023-04-24T17:42:25;12.32;;;5.85;;
80146;SDS011;69472;55.812;37.638;2023-04-24T17:47:26;13.25;;;7.13;;
80146;SDS011;69472;55.812;37.638;2023-04-24T17:52:29;11.52;;;8.07;;
80146;SDS011;69472;55.812;37.638;2023-04-24T17:57:30;17.15;;;8.45;;
80146;SDS011;69472;55.812;37.638;2023-04-24T18:02:31;14.45;;;6.57;;
80146;SDS011;69472;55.812;37.638;2023-04-24T18:07:32;14.85;;;7.00;;
80146;SDS011;69472;55.812;37.638;2023-04-24T18:12:33;15.50;;;6.25;;
80146;SDS011;69472;55.812;37.638;2023-04-24T18:17:34;11.18;;;5.68;;
80146;SDS011;69472;55.812;37.638;2023-04-24T18:22:35;12.88;;;6.85;;
80146;SDS011;69472;55.812;37.638;2023-04-24T18:27:36;13.35;;;7.32;;
80146;SDS011;69472;55.812;37.638;2023-04-24T18:32:37;15.82;;;7.75;;
80146;SDS011;69472;55.812;37.638;2023-04-24T18:37:38;20.13;;;7.35;;
80146;SDS011;69472;55.812;37.638;2023-04-24T18:42:40;14.18;;;6.68;;
80146;SDS011;69472;55.812;37.638;2023-04-24T18:47:41;13.77;;;6.55;;
80146;SDS011;69472;55.812;37.638;2023-04-24T18:52:42;15.25;;;8.00;;
80146;SDS011;69472;55.812;37.638;2023-04-24T18:57:43;14.40;;;6.80;;
80146;SDS011;69472;55.812;37.638;2023-04-24T19:02:44;12.73;;;7.47;;
80146;SDS011;69472;55.812;37.638;2023-04-24T19:07:45;14.35;;;7.03;;
80146;SDS011;69472;55.812;37.638;2023-04-24T19:12:45;13.65;;;6.75;;
80146;SDS011;69472;55.812;37.638;2023-04-24T19:17:48;12.57;;;7.15;;
80146;SDS011;69472;55.812;37.638;2023-04-24T19:27:51;11.82;;;6.07;;
80146;SDS011;69472;55.812;37.638;2023-04-24T19:32:52;11.95;;;7.63;;
80146;SDS011;69472;55.812;37.638;2023-04-24T19:37:53;17.05;;;8.05;;
80146;SDS011;69472;55.812;37.638;2023-04-24T19:42:54;12.00;;;8.38;;
80146;SDS011;69472;55.812;37.638;2023-04-24T19:47:55;13.30;;;7.70;;
80146;SDS011;69472;55.812;37.638;2023-04-24T19:52:56;14.50;;;7.45;;
80146;SDS011;69472;55.812;37.638;2023-04-24T19:57:59;17.05;;;7.15;;
80146;SDS011;69472;55.812;37.638;2023-04-24T20:03:00;16.13;;;8.27;;
80146;SDS011;69472;55.812;37.638;2023-04-24T20:08:02;13.98;;;6.85;;
80146;SDS011;69472;55.812;37.638;2023-04-24T20:13:02;11.40;;;6.07;;
80146;SDS011;69472;55.812;37.638;2023-04-24T20:18:03;11.85;;;7.47;;
80146;SDS011;69472;55.812;37.638;2023-04-24T20:23:04;14.63;;;6.78;;
80146;SDS011;69472;55.812;37.638;2023-04-24T20:28:05;10.55;;;7.53;;
80146;SDS011;69472;55.812;37.638;2023-04-24T20:33:05;14.80;;;6.53;;
80146;SDS011;69472;55.812;37.638;2023-04-24T20:38:06;12.25;;;7.25;;
80146;SDS011;69472;55.812;37.638;2023-04-24T20:43:10;14.15;;;6.43;;
80146;SDS011;69472;55.812;37.638;2023-04-24T20:48:11;14.68;;;8.25;;
80146;SDS011;69472;55.812;37.638;2023-04-24T20:53:12;14.45;;;7.40;;
80146;SDS011;69472;55.812;37.638;2023-04-24T20:58:12;14.57;;;7.65;;
80146;SDS011;69472;55.812;37.638;2023-04-24T21:03:14;19.40;;;9.13;;
80146;SDS011;69472;55.812;37.638;2023-04-24T21:08:15;15.82;;;8.63;;
80146;SDS011;69472;55.812;37.638;2023-04-24T21:13:16;19.10;;;9.85;;
80146;SDS011;69472;55.812;37.638;2023-04-24T21:18:17;21.58;;;9.98;;
80146;SDS011;69472;55.812;37.638;2023-04-24T21:23:17;16.85;;;9.43;;
80146;SDS011;69472;55.812;37.638;2023-04-24T21:28:18;17.15;;;10.20;;
80146;SDS011;69472;55.812;37.638;2023-04-24T21:33:19;21.70;;;9.45;;
80146;SDS011;69472;55.812;37.638;2023-04-24T21:38:20;19.75;;;9.57;;
80146;SDS011;69472;55.812;37.638;2023-04-24T21:43:23;18.20;;;8.20;;
80146;SDS011;69472;55.812;37.638;2023-04-24T21:48:24;20.08;;;8.27;;
80146;SDS011;69472;55.812;37.638;2023-04-24T21:53:24;17.05;;;8.73;;
80146;SDS011;69472;55.812;37.638;2023-04-24T21:58:25;20.83;;;9.63;;
80146;SDS011;69472;55.812;37.638;2023-04-24T22:03:26;16.23;;;8.43;;
80146;SDS011;69472;55.812;37.638;2023-04-24T22:08:28;18.60;;;7.32;;
80146;SDS011;69472;55.812;37.638;2023-04-24T22:13:29;22.80;;;9.57;;
80146;SDS011;69472;55.812;37.638;2023-04-24T22:18:30;13.40;;;8.95;;
80146;SDS011;69472;55.812;37.638;2023-04-24T22:23:30;17.17;;;9.30;;
80146;SDS011;69472;55.812;37.638;2023-04-24T22:28:32;16.13;;;7.53;;
80146;SDS011;69472;55.812;37.638;2023-04-24T22:33:33;14.52;;;9.40;;
80146;SDS011;69472;55.812;37.638;2023-04-24T22:38:33;13.85;;;8.57;;
80146;SDS011;69472;55.812;37.638;2023-04-24T22:43:34;18.10;;;9.13;;
80146;SDS011;69472;55.812;37.638;2023-04-24T22:48:35;18.90;;;9.85;;
80146;SDS011;69472;55.812;37.638;2023-04-24T22:53:35;15.00;;;8.52;;
80146;SDS011;69472;55.812;37.638;2023-04-24T22:58:36;18.92;;;8.85;;
80146;SDS011;69472;55.812;37.638;2023-04-24T23:03:37;19.73;;;9.10;;
80146;SDS011;69472;55.812;37.638;2023-04-24T23:08:38;17.17;;;7.40;;
80146;SDS011;69472;55.812;37.638;2023-04-24T23:13:38;17.65;;;9.32;;
80146;SDS011;69472;55.812;37.638;2023-04-24T23:18:39;17.42;;;9.13;;
80146;SDS011;69472;55.812;37.638;2023-04-24T23:23:40;16.15;;;8.13;;
80146;SDS011;69472;55.812;37.638;2023-04-24T23:28:41;20.50;;;9.80;;
80146;SDS011;69472;55.812;37.638;2023-04-24T23:33:41;14.30;;;9.10;;
80146;SDS011;69472;55.812;37.638;2023-04-24T23:38:42;14.93;;;9.13;;
80146;SDS011;69472;55.812;37.638;2023-04-24T23:43:43;18.02;;;8.93;;
80146;SDS011;69472;55.812;37.638;2023-04-24T23:48:44;16.15;;;8.73;;
80146;SDS011;69472;55.812;37.638;2023-04-24T23:53:45;13.45;;;7.68;;
80146;SDS011;69472;55.812;37.638;2023-04-24T23:58:46;19.73;;;9.57;;
